Time;durP1;ratioP1;P1;durP2;ratioP2;P2;SDS_P1;SDS_P2;PMS_P1;PMS_P2;Temp;Humidity;BMP_temperature;BMP_pressure;BME280_temperature;BME280_humidity;BME280_pressure;Samples;Min_cycle;Max_cycle;Signal;HPM_P1;HPM_P2
2023/04/07 00:03:07;;;;;;;13.23;8.32;;;7.90;99.90;;;;;;12481899;28;20187;-81
2023/04/07 00:09:10;;;;;;;14.93;8.45;;;7.90;99.90;;;;;;12469491;28;20425;-80
2023/04/07 00:15:12;;;;;;;13.40;8.15;;;7.90;99.90;;;;;;12474519;28;20081;-80
2023/04/07 00:21:13;;;;;;;13.68;8.07;;;7.90;99.90;;;;;;12470994;28;20053;-80
2023/04/07 00:27:15;;;;;;;10.90;8.13;;;7.90;99.90;;;;;;12476462;28;20105;-80
2023/04/07 00:33:17;;;;;;;10.77;7.45;;;7.80;99.90;;;;;;12484362;28;20180;-79
2023/04/07 00:39:20;;;;;;;11.45;7.13;;;7.80;99.90;;;;;;12466055;28;20092;-81
2023/04/07 00:45:22;;;;;;;13.90;7.00;;;7.80;99.90;;;;;;12492356;28;20045;-80
2023/04/07 00:51:25;;;;;;;10.40;7.28;;;7.80;99.90;;;;;;12480539;28;20053;-79
2023/04/07 00:57:27;;;;;;;10.52;7.10;;;7.80;99.90;;;;;;12470643;28;20060;-80
2023/04/07 01:04:00;;;;;;;9.85;6.63;;;7.80;99.90;;;;;;12471277;28;20152;-80
2023/04/07 01:10:07;;;;;;;8.65;6.57;;;7.70;99.90;;;;;;12472993;28;20057;-79
2023/04/07 01:16:40;;;;;;;10.95;6.90;;;7.70;99.90;;;;;;12478849;28;20073;-80
2023/04/07 01:22:46;;;;;;;9.85;6.63;;;7.70;99.90;;;;;;12469369;28;20095;-81
2023/04/07 01:29:30;;;;;;;9.82;7.03;;;7.60;99.90;;;;;;12477821;28;20077;-80
2023/04/07 01:35:34;;;;;;;10.68;6.90;;;7.70;99.90;;;;;;12479353;28;20133;-81
2023/04/07 01:41:38;;;;;;;9.60;6.35;;;7.60;99.90;;;;;;12486659;28;20165;-79
2023/04/07 01:47:40;;;;;;;9.30;6.82;;;7.60;99.90;;;;;;12478594;28;20127;-80
2023/04/07 01:53:46;;;;;;;9.73;6.35;;;7.50;99.90;;;;;;12479155;28;20482;-81
2023/04/07 01:59:48;;;;;;;9.82;6.70;;;7.40;99.90;;;;;;12492805;28;20060;-80
2023/04/07 02:05:56;;;;;;;12.52;6.93;;;7.30;99.90;;;;;;12466787;28;20140;-80
2023/04/07 02:12:03;;;;;;;10.32;7.03;;;7.30;99.90;;;;;;12469294;28;20057;-80
2023/04/07 02:18:06;;;;;;;9.85;6.50;;;7.20;99.90;;;;;;12494795;28;20125;-80
2023/04/07 02:24:10;;;;;;;11.53;7.60;;;7.10;99.90;;;;;;12493086;28;20037;-80
2023/04/07 02:30:13;;;;;;;12.93;7.90;;;7.00;99.90;;;;;;12483532;28;20056;-80
2023/04/07 02:36:14;;;;;;;12.95;7.88;;;6.90;99.90;;;;;;12477146;28;20316;-80
2023/04/07 02:42:16;;;;;;;11.45;7.72;;;6.90;99.90;;;;;;12468141;28;20049;-80
2023/04/07 02:48:18;;;;;;;12.20;8.10;;;6.90;99.90;;;;;;12489799;28;20152;-82
2023/04/07 02:54:20;;;;;;;11.20;8.43;;;6.90;99.90;;;;;;12469214;28;20054;-79
2023/04/07 03:00:22;;;;;;;11.85;8.07;;;6.80;99.90;;;;;;12494929;28;20057;-81
2023/04/07 03:06:25;;;;;;;12.43;8.73;;;6.80;99.90;;;;;;12516784;28;20033;-80
2023/04/07 03:12:27;;;;;;;14.35;8.25;;;6.90;99.90;;;;;;12509089;28;20049;-81
2023/04/07 03:18:29;;;;;;;12.02;7.88;;;6.90;99.90;;;;;;12513615;28;20528;-79
2023/04/07 03:24:31;;;;;;;11.57;7.65;;;6.80;99.90;;;;;;12473605;28;20046;-80
2023/04/07 03:30:33;;;;;;;11.77;7.93;;;6.80;99.90;;;;;;12473647;28;20493;-81
2023/04/07 03:36:35;;;;;;;11.05;7.78;;;6.80;99.90;;;;;;12464653;28;20042;-80
2023/04/07 03:42:37;;;;;;;12.23;7.82;;;6.80;99.90;;;;;;12468525;28;20038;-80
2023/04/07 03:48:39;;;;;;;11.93;7.93;;;6.70;99.90;;;;;;12489177;28;20091;-80
2023/04/07 03:54:41;;;;;;;12.23;8.25;;;6.80;99.90;;;;;;12471508;28;20355;-80
2023/04/07 04:00:43;;;;;;;12.48;8.60;;;6.80;99.90;;;;;;12473703;28;20042;-80
2023/04/07 04:06:46;;;;;;;14.32;8.15;;;6.70;99.90;;;;;;12475137;28;20060;-80
2023/04/07 04:12:48;;;;;;;14.48;8.25;;;6.80;99.90;;;;;;12475300;28;20082;-79
2023/04/07 04:18:50;;;;;;;12.00;7.57;;;6.80;99.90;;;;;;12468993;28;20517;-79
2023/04/07 04:24:52;;;;;;;10.52;7.68;;;6.80;99.90;;;;;;12480300;28;20049;-80
2023/04/07 04:30:54;;;;;;;12.88;8.52;;;6.70;99.90;;;;;;12488849;28;20049;-81
2023/04/07 04:36:56;;;;;;;12.45;8.77;;;6.70;99.90;;;;;;12469827;28;20381;-80
2023/04/07 04:42:58;;;;;;;13.38;9.10;;;6.70;99.90;;;;;;12475163;28;20038;-79
2023/04/07 04:49:00;;;;;;;13.68;9.20;;;6.70;99.90;;;;;;12486945;28;21411;-79
2023/04/07 04:55:02;;;;;;;13.88;9.43;;;6.70;99.90;;;;;;12473032;28;20386;-80
2023/04/07 05:01:04;;;;;;;13.05;9.20;;;6.70;99.90;;;;;;12476213;28;20045;-81
2023/04/07 05:07:06;;;;;;;12.20;8.38;;;6.70;99.90;;;;;;12470987;28;20053;-81
2023/04/07 05:13:08;;;;;;;12.90;8.90;;;6.80;99.90;;;;;;12469920;28;20049;-81
2023/04/07 05:19:10;;;;;;;11.27;8.23;;;7.00;99.90;;;;;;12477489;28;20052;-80
2023/04/07 05:25:12;;;;;;;11.25;7.65;;;8.00;99.90;;;;;;12475829;28;20041;-80
2023/04/07 05:31:14;;;;;;;10.50;7.35;;;8.30;99.90;;;;;;12491203;28;20064;-80
2023/04/07 05:37:16;;;;;;;11.90;7.72;;;8.00;99.90;;;;;;12467290;28;20049;-80
2023/04/07 05:43:18;;;;;;;12.05;7.70;;;8.30;99.90;;;;;;12473501;28;20553;-80
2023/04/07 05:49:20;;;;;;;11.20;8.07;;;7.90;99.90;;;;;;12462897;28;20102;-80
2023/04/07 05:55:22;;;;;;;11.63;8.30;;;7.70;99.90;;;;;;12481857;28;20096;-80
2023/04/07 06:01:24;;;;;;;12.77;8.50;;;7.50;99.90;;;;;;12467052;28;20053;-80
2023/04/07 06:07:29;;;;;;;12.07;7.45;;;7.20;99.90;;;;;;12470439;28;20069;-81
2023/04/07 06:13:31;;;;;;;10.32;7.40;;;7.20;99.90;;;;;;12466030;28;20183;-81
2023/04/07 06:19:33;;;;;;;10.88;7.18;;;7.30;99.90;;;;;;12465367;28;20383;-81
2023/04/07 06:25:35;;;;;;;11.18;7.18;;;7.40;99.90;;;;;;12469910;28;20048;-81
2023/04/07 06:31:37;;;;;;;10.85;6.82;;;7.50;99.90;;;;;;12469264;28;20051;-81
2023/04/07 06:37:39;;;;;;;12.18;7.45;;;7.60;99.90;;;;;;12463092;28;20089;-81
2023/04/07 06:43:46;;;;;;;11.70;7.22;;;7.50;99.90;;;;;;12493095;28;20060;-81
2023/04/07 06:49:48;;;;;;;9.88;6.63;;;7.70;99.90;;;;;;12463941;28;20156;-81
2023/04/07 06:55:50;;;;;;;8.38;5.82;;;7.80;99.90;;;;;;12469318;28;20466;-81
2023/04/07 07:01:52;;;;;;;9.10;5.55;;;7.90;99.90;;;;;;12453245;28;20414;-81
2023/04/07 07:07:54;;;;;;;7.78;5.63;;;8.00;99.90;;;;;;12471526;28;20076;-81
2023/04/07 07:13:56;;;;;;;7.75;5.10;;;8.20;99.90;;;;;;12457408;28;20045;-81
2023/04/07 07:19:58;;;;;;;7.05;4.82;;;8.20;99.90;;;;;;12455108;28;20054;-82
2023/04/07 07:26:00;;;;;;;9.13;4.90;;;8.40;99.90;;;;;;12486520;28;20620;-81
2023/04/07 07:32:02;;;;;;;5.45;4.00;;;8.40;99.90;;;;;;12469375;28;20045;-82
2023/04/07 07:38:04;;;;;;;6.43;4.40;;;8.60;99.90;;;;;;12468404;28;20095;-81
2023/04/07 07:44:07;;;;;;;6.72;4.47;;;8.70;99.90;;;;;;12459738;28;20038;-82
2023/04/07 07:50:09;;;;;;;5.95;3.78;;;9.00;99.90;;;;;;12488854;28;20072;-81
2023/04/07 07:56:11;;;;;;;7.75;3.95;;;9.10;99.90;;;;;;12479119;28;20520;-81
2023/04/07 08:02:12;;;;;;;9.73;3.83;;;9.30;99.90;;;;;;12493222;28;20098;-82
2023/04/07 08:08:15;;;;;;;5.28;3.47;;;9.50;99.90;;;;;;12493480;28;20137;-81
2023/04/07 08:14:17;;;;;;;5.00;3.70;;;9.50;99.90;;;;;;12503189;28;20038;-82
2023/04/07 08:20:19;;;;;;;6.85;3.45;;;9.80;99.90;;;;;;12474814;28;20128;-81
2023/04/07 08:26:21;;;;;;;7.07;3.40;;;10.00;99.90;;;;;;12496426;28;20154;-82
2023/04/07 08:32:23;;;;;;;7.15;3.80;;;10.40;99.90;;;;;;12483476;28;20507;-82
2023/04/07 08:38:25;;;;;;;5.07;3.65;;;10.50;99.90;;;;;;12491825;28;20065;-82
2023/04/07 08:44:28;;;;;;;6.63;3.53;;;10.40;99.90;;;;;;12468770;28;20048;-82
2023/04/07 08:50:31;;;;;;;8.03;4.90;;;10.30;99.90;;;;;;12480153;28;20060;-81
2023/04/07 08:56:33;;;;;;;6.72;4.80;;;10.10;99.90;;;;;;12480198;28;20054;-81
2023/04/07 09:02:40;;;;;;;7.32;5.00;;;10.00;99.90;;;;;;12477603;28;20041;-81
2023/04/07 09:08:42;;;;;;;8.27;5.47;;;10.40;99.90;;;;;;12484818;28;20064;-82
2023/04/07 09:14:44;;;;;;;14.45;5.53;;;11.10;99.90;;;;;;12481557;28;20042;-81
2023/04/07 09:21:00;;;;;;;7.35;5.40;;;11.40;99.90;;;;;;12471526;28;20040;-82
2023/04/07 09:27:14;;;;;;;8.95;5.95;;;11.80;99.90;;;;;;12484133;28;20057;-83
2023/04/07 09:33:26;;;;;;;8.98;6.07;;;11.70;99.90;;;;;;12482496;28;20061;-82
2023/04/07 09:39:28;;;;;;;8.88;6.35;;;11.80;99.90;;;;;;12467645;28;20046;-82
2023/04/07 09:45:31;;;;;;;9.55;7.22;;;11.90;99.90;;;;;;12495354;28;20037;-82
2023/04/07 09:51:37;;;;;;;9.25;5.90;;;11.80;99.90;;;;;;12466172;28;20103;-81
2023/04/07 09:57:41;;;;;;;8.52;6.28;;;11.60;99.90;;;;;;12469440;28;20085;-82
2023/04/07 10:03:45;;;;;;;10.73;6.90;;;11.80;99.90;;;;;;12465515;28;20115;-83
2023/04/07 10:09:48;;;;;;;9.00;6.32;;;12.30;99.90;;;;;;12461527;28;20059;-81
2023/04/07 10:15:51;;;;;;;8.73;6.57;;;12.20;99.90;;;;;;12477108;28;20168;-83
2023/04/07 10:21:55;;;;;;;11.60;6.85;;;12.40;99.90;;;;;;12488375;28;20136;-82
2023/04/07 10:28:02;;;;;;;10.75;7.88;;;12.50;99.90;;;;;;12480334;28;20077;-82
2023/04/07 10:34:04;;;;;;;9.93;7.00;;;13.20;99.90;;;;;;12481659;28;20049;-81
2023/04/07 10:40:19;;;;;;;10.90;7.43;;;13.50;99.90;;;;;;12474723;28;20053;-82
2023/04/07 10:46:20;;;;;;;12.68;7.38;;;13.10;99.90;;;;;;12457187;28;20387;-81
2023/04/07 10:52:23;;;;;;;10.05;7.68;;;12.80;99.90;;;;;;12477511;28;20073;-82
2023/04/07 10:58:32;;;;;;;13.95;9.50;;;12.90;99.90;;;;;;12468532;28;20093;-81
2023/04/07 11:04:38;;;;;;;12.48;8.68;;;13.10;99.90;;;;;;12463885;28;20048;-80
2023/04/07 11:10:46;;;;;;;15.43;10.45;;;13.10;99.90;;;;;;12476180;28;20050;-86
2023/04/07 11:16:48;;;;;;;16.05;10.82;;;13.50;99.90;;;;;;12500455;28;20096;-81
2023/04/07 11:22:59;;;;;;;11.05;8.15;;;13.10;99.90;;;;;;12483919;28;20144;-81
2023/04/07 11:29:01;;;;;;;10.65;7.85;;;13.10;99.90;;;;;;12494215;28;20058;-81
2023/04/07 11:35:06;;;;;;;11.88;7.97;;;12.90;99.90;;;;;;12491753;28;20076;-80
2023/04/07 11:41:13;;;;;;;10.60;7.97;;;12.40;99.90;;;;;;12484045;28;20471;-81
2023/04/07 11:47:15;;;;;;;13.98;8.60;;;12.40;99.90;;;;;;12504840;28;20054;-82
2023/04/07 11:53:39;;;;;;;14.15;8.02;;;12.80;99.90;;;;;;12495630;28;20041;-81
2023/04/07 11:59:43;;;;;;;14.90;8.13;;;13.30;99.90;;;;;;12510574;28;20049;-82
2023/04/07 12:05:45;;;;;;;11.65;7.22;;;12.50;99.90;;;;;;12477102;28;20133;-81
2023/04/07 12:11:50;;;;;;;10.95;7.65;;;12.80;99.90;;;;;;12493994;28;20054;-82
2023/04/07 12:17:54;;;;;;;11.00;7.30;;;13.10;99.90;;;;;;12461360;28;20526;-82
2023/04/07 12:23:56;;;;;;;12.18;8.18;;;13.60;99.90;;;;;;12483546;28;20037;-83
2023/04/07 12:29:58;;;;;;;12.77;8.70;;;13.80;99.90;;;;;;12475863;28;20423;-83
2023/04/07 12:36:00;;;;;;;11.73;8.07;;;13.40;99.90;;;;;;12484801;28;20041;-82
2023/04/07 12:42:02;;;;;;;11.27;7.70;;;13.50;99.90;;;;;;12505202;28;20065;-83
2023/04/07 12:48:04;;;;;;;10.45;7.43;;;13.20;99.90;;;;;;12503410;28;20073;-82
2023/04/07 12:54:06;;;;;;;15.40;8.05;;;14.20;99.90;;;;;;12470509;28;20041;-83
2023/04/07 13:00:08;;;;;;;13.43;9.00;;;14.40;99.90;;;;;;12465633;28;20049;-83
2023/04/07 13:06:11;;;;;;;15.82;9.80;;;14.20;99.90;;;;;;12479536;28;20061;-83
2023/04/07 13:12:13;;;;;;;15.52;9.45;;;14.50;99.90;;;;;;12470234;28;20105;-83
2023/04/07 13:18:14;;;;;;;17.13;8.80;;;14.50;99.90;;;;;;12470123;28;20045;-83
2023/04/07 13:24:16;;;;;;;15.27;10.10;;;14.60;99.90;;;;;;12472138;28;20112;-82
2023/04/07 13:30:21;;;;;;;11.98;8.77;;;14.00;99.90;;;;;;12470479;28;20072;-83
2023/04/07 13:36:26;;;;;;;12.48;8.50;;;13.60;99.90;;;;;;12477158;28;20046;-83
2023/04/07 13:42:28;;;;;;;11.43;8.20;;;13.80;99.90;;;;;;12481523;28;20053;-83
2023/04/07 13:48:30;;;;;;;11.52;8.13;;;14.10;99.90;;;;;;12489684;28;20485;-84
2023/04/07 13:54:32;;;;;;;12.10;7.82;;;14.10;99.90;;;;;;12467856;28;20054;-82
2023/04/07 14:00:34;;;;;;;11.25;8.07;;;14.00;99.90;;;;;;12478721;28;20065;-83
2023/04/07 14:06:36;;;;;;;11.00;7.50;;;13.70;99.90;;;;;;12474580;28;20133;-83
2023/04/07 14:12:38;;;;;;;11.20;7.90;;;13.70;99.90;;;;;;12469612;28;20127;-83
2023/04/07 14:18:40;;;;;;;12.27;8.15;;;13.50;99.90;;;;;;12470830;28;20502;-83
2023/04/07 14:24:42;;;;;;;10.05;6.95;;;13.80;99.90;;;;;;12470085;28;20076;-83
2023/04/07 14:30:44;;;;;;;11.43;7.32;;;14.00;99.90;;;;;;12474448;28;20710;-83
2023/04/07 14:36:57;;;;;;;10.15;7.18;;;14.10;99.90;;;;;;12472998;28;20406;-83
2023/04/07 14:43:00;;;;;;;13.43;8.52;;;13.90;99.90;;;;;;12483223;28;20038;-82
2023/04/07 14:49:04;;;;;;;10.82;7.45;;;13.90;99.90;;;;;;12481637;28;20077;-83
2023/04/07 14:55:07;;;;;;;12.07;7.70;;;14.10;99.90;;;;;;12473980;28;20158;-84
2023/04/07 15:01:09;;;;;;;12.15;7.47;;;14.20;99.90;;;;;;12490436;28;20056;-83
2023/04/07 15:07:11;;;;;;;13.07;7.90;;;14.20;99.90;;;;;;12474352;28;20421;-83
2023/04/07 15:13:13;;;;;;;12.70;7.53;;;14.70;99.90;;;;;;12483632;28;20060;-83
2023/04/07 15:19:15;;;;;;;11.35;7.10;;;14.40;99.90;;;;;;12484983;28;20090;-83
2023/04/07 15:25:17;;;;;;;13.20;7.65;;;14.40;99.90;;;;;;12482354;28;20085;-83
2023/04/07 15:31:22;;;;;;;10.40;7.47;;;14.00;99.90;;;;;;12482829;28;20046;-83
2023/04/07 15:37:25;;;;;;;11.43;7.65;;;14.20;99.90;;;;;;12472960;28;20041;-82
2023/04/07 15:43:28;;;;;;;12.63;7.78;;;14.20;99.90;;;;;;12488215;28;20054;-82
2023/04/07 15:49:29;;;;;;;11.05;7.18;;;14.20;99.90;;;;;;12488693;28;20061;-84
2023/04/07 15:55:33;;;;;;;11.30;7.72;;;14.30;99.90;;;;;;12477162;28;20135;-84
2023/04/07 16:01:36;;;;;;;11.43;7.28;;;13.90;99.90;;;;;;12471658;28;20069;-83
2023/04/07 16:07:39;;;;;;;11.17;7.57;;;13.50;99.90;;;;;;12493193;28;20068;-83
2023/04/07 16:13:41;;;;;;;12.52;8.23;;;13.40;99.90;;;;;;12486642;28;20098;-83
2023/04/07 16:19:43;;;;;;;13.32;7.47;;;13.20;99.90;;;;;;12476271;28;20076;-82
2023/04/07 16:25:45;;;;;;;11.43;7.07;;;13.30;99.90;;;;;;12481289;28;20053;-83
2023/04/07 16:31:47;;;;;;;12.20;7.90;;;13.40;99.90;;;;;;12483996;28;20079;-83
2023/04/07 16:37:50;;;;;;;9.60;6.70;;;13.30;99.90;;;;;;12478703;28;20148;-82
2023/04/07 16:43:51;;;;;;;10.38;6.10;;;13.20;99.90;;;;;;12484113;28;20042;-82
2023/04/07 16:49:53;;;;;;;9.30;5.82;;;12.80;99.90;;;;;;12477571;28;20054;-83
2023/04/07 16:55:55;;;;;;;10.15;6.20;;;12.70;99.90;;;;;;12499466;28;20044;-83
2023/04/07 17:01:57;;;;;;;8.93;5.30;;;12.50;99.90;;;;;;12465380;28;20062;-82
2023/04/07 17:07:59;;;;;;;9.52;5.28;;;12.30;99.90;;;;;;12481877;28;20160;-82
2023/04/07 17:14:02;;;;;;;11.50;5.65;;;12.20;99.90;;;;;;12466935;28;20049;-82
2023/04/07 17:20:04;;;;;;;8.57;5.35;;;12.00;99.90;;;;;;12470970;28;20064;-82
2023/04/07 17:26:06;;;;;;;9.68;5.35;;;12.00;99.90;;;;;;12474613;28;20045;-82
2023/04/07 17:32:08;;;;;;;9.60;5.45;;;11.80;99.90;;;;;;12470781;28;20058;-82
2023/04/07 17:38:10;;;;;;;11.63;6.35;;;11.50;99.90;;;;;;12486526;28;20087;-81
2023/04/07 17:44:12;;;;;;;9.50;5.10;;;11.20;99.90;;;;;;12460953;28;20073;-81
2023/04/07 17:50:17;;;;;;;9.70;5.75;;;11.00;99.90;;;;;;12481561;28;20077;-83
2023/04/07 17:56:19;;;;;;;8.73;5.40;;;10.90;99.90;;;;;;12465515;28;20053;-83
2023/04/07 18:02:21;;;;;;;8.50;4.90;;;10.90;99.90;;;;;;12477478;28;20176;-83
2023/04/07 18:08:25;;;;;;;8.43;5.03;;;10.80;99.90;;;;;;12474306;28;20060;-81
2023/04/07 18:14:27;;;;;;;7.55;5.00;;;10.70;99.90;;;;;;12463946;28;20077;-83
2023/04/07 18:20:30;;;;;;;9.60;5.15;;;10.50;99.90;;;;;;12476862;28;20056;-82
2023/04/07 18:26:35;;;;;;;7.82;4.75;;;10.30;99.90;;;;;;12473480;28;20077;-82
2023/04/07 18:32:37;;;;;;;7.35;5.13;;;10.20;99.90;;;;;;12480053;28;20789;-82
2023/04/07 18:38:39;;;;;;;9.73;5.28;;;10.10;99.90;;;;;;12479430;28;20550;-82
2023/04/07 18:44:41;;;;;;;10.43;6.05;;;10.10;99.90;;;;;;12475281;28;20144;-82
2023/04/07 18:50:50;;;;;;;9.27;5.45;;;9.90;99.90;;;;;;12484588;28;20057;-82
2023/04/07 18:56:52;;;;;;;9.13;5.32;;;9.80;99.90;;;;;;12474688;28;20131;-82
2023/04/07 19:02:53;;;;;;;5.55;3.63;;;9.80;99.90;;;;;;12469590;28;20072;-82
2023/04/07 19:08:56;;;;;;;8.27;4.35;;;9.70;99.90;;;;;;12466808;28;20513;-82
2023/04/07 19:14:58;;;;;;;8.95;4.07;;;9.60;99.90;;;;;;12459369;28;20061;-82
2023/04/07 19:21:00;;;;;;;7.10;3.92;;;9.50;99.90;;;;;;12456040;28;20068;-82
2023/04/07 19:27:03;;;;;;;6.50;3.72;;;9.40;99.90;;;;;;12470650;28;20057;-82
2023/04/07 19:33:05;;;;;;;6.72;3.63;;;9.30;99.90;;;;;;12490437;28;20094;-82
2023/04/07 19:39:07;;;;;;;8.23;4.05;;;9.20;99.90;;;;;;12478587;28;20046;-82
2023/04/07 19:45:09;;;;;;;7.28;4.28;;;9.20;99.90;;;;;;12487483;28;20092;-82
2023/04/07 19:51:11;;;;;;;7.65;3.92;;;9.10;99.90;;;;;;12480923;28;20046;-82
2023/04/07 19:57:14;;;;;;;7.65;3.95;;;9.00;99.90;;;;;;12470966;28;20050;-82
2023/04/07 20:03:17;;;;;;;7.38;4.22;;;8.90;99.90;;;;;;12465175;28;20136;-82
2023/04/07 20:09:24;;;;;;;9.13;4.50;;;8.90;99.90;;;;;;12488383;28;20058;-82
2023/04/07 20:15:27;;;;;;;7.90;4.25;;;8.90;99.90;;;;;;12478401;28;20081;-82
2023/04/07 20:21:31;;;;;;;8.50;4.47;;;8.80;99.90;;;;;;12478387;28;20047;-83
2023/04/07 20:27:33;;;;;;;9.18;5.13;;;8.50;99.90;;;;;;12471398;28;21091;-82
2023/04/07 20:33:34;;;;;;;9.32;4.45;;;8.20;99.90;;;;;;12478739;28;20494;-82
2023/04/07 20:39:37;;;;;;;5.75;3.92;;;8.10;99.90;;;;;;12490684;28;20045;-82
2023/04/07 20:45:39;;;;;;;5.75;3.60;;;7.90;99.90;;;;;;12480069;28;20034;-82
2023/04/07 20:51:41;;;;;;;7.03;4.03;;;7.80;99.90;;;;;;12481193;28;20041;-82
2023/04/07 20:57:43;;;;;;;7.00;4.40;;;7.60;99.90;;;;;;12484129;28;20049;-82
2023/04/07 21:03:45;;;;;;;6.95;3.92;;;7.40;99.90;;;;;;12479283;28;20045;-82
2023/04/07 21:09:48;;;;;;;7.20;4.03;;;7.30;99.90;;;;;;12477265;28;20057;-82
2023/04/07 21:15:50;;;;;;;7.82;4.25;;;7.30;99.90;;;;;;12480631;28;20109;-82
2023/04/07 21:21:52;;;;;;;7.40;4.18;;;7.20;99.90;;;;;;12466407;28;20038;-82
2023/04/07 21:27:54;;;;;;;6.38;3.65;;;7.10;99.90;;;;;;12476726;28;20062;-82
2023/04/07 21:33:56;;;;;;;7.10;3.83;;;7.00;99.90;;;;;;12473428;28;20055;-82
2023/04/07 21:39:58;;;;;;;5.78;3.35;;;6.90;99.90;;;;;;12497485;28;20124;-82
2023/04/07 21:46:00;;;;;;;8.75;3.40;;;6.80;99.90;;;;;;12484168;28;20075;-82
2023/04/07 21:52:02;;;;;;;6.57;3.50;;;6.70;99.90;;;;;;12492924;28;20068;-82
2023/04/07 21:58:04;;;;;;;6.30;3.58;;;6.70;99.90;;;;;;12512162;28;20071;-82
2023/04/07 22:04:05;;;;;;;8.15;3.80;;;6.50;99.90;;;;;;12525233;28;20067;-83
2023/04/07 22:10:08;;;;;;;8.50;4.32;;;6.30;99.90;;;;;;12521096;28;20057;-82
2023/04/07 22:16:10;;;;;;;8.10;4.35;;;6.30;99.90;;;;;;12486637;28;20030;-82
2023/04/07 22:22:12;;;;;;;9.93;4.65;;;6.10;99.90;;;;;;12485841;28;20060;-81
2023/04/07 22:28:14;;;;;;;9.02;4.75;;;6.00;99.90;;;;;;12466568;28;20956;-81
2023/04/07 22:34:17;;;;;;;8.88;5.80;;;5.90;99.90;;;;;;12459104;28;20049;-81
2023/04/07 22:40:19;;;;;;;9.52;4.65;;;5.80;99.90;;;;;;12485369;28;20050;-81
2023/04/07 22:46:21;;;;;;;7.15;4.10;;;5.80;99.90;;;;;;12482906;28;20057;-82
2023/04/07 22:52:22;;;;;;;7.03;3.80;;;5.90;99.90;;;;;;12476043;28;20054;-81
2023/04/07 22:58:25;;;;;;;7.57;4.03;;;5.90;99.90;;;;;;12480335;28;20057;-81
2023/04/07 23:04:27;;;;;;;7.38;4.43;;;5.70;99.90;;;;;;12461156;28;20518;-82
2023/04/07 23:10:31;;;;;;;9.18;3.90;;;5.90;99.90;;;;;;12460781;28;20057;-82
2023/04/07 23:16:33;;;;;;;7.17;4.10;;;6.00;99.90;;;;;;12473674;28;20509;-82
2023/04/07 23:22:35;;;;;;;6.35;3.80;;;5.60;99.90;;;;;;12469719;28;20038;-81
2023/04/07 23:28:37;;;;;;;6.05;3.85;;;5.40;99.90;;;;;;12477042;28;20199;-81
2023/04/07 23:34:39;;;;;;;10.10;4.10;;;5.40;99.90;;;;;;12464849;28;20506;-81
2023/04/07 23:40:41;;;;;;;7.13;4.05;;;5.50;99.90;;;;;;12487189;28;20103;-82
2023/04/07 23:46:43;;;;;;;5.80;3.88;;;5.60;99.90;;;;;;12493468;28;20065;-82
2023/04/07 23:52:45;;;;;;;5.93;3.83;;;5.50;99.90;;;;;;12458025;28;20042;-82
2023/04/07 23:58:47;;;;;;;7.93;3.65;;;5.50;99.90;;;;;;12480268;28;20050;-81
